sensor_id;sensor_type;location;lat;lon;timestamp;pressure;altitude;pressure_sealevel;temperature;humidity
62458;BME280;48509;52.122;5.250;2023-12-07T00:00:12;101956.0;;;1.03;100.0
62458;BME280;48509;52.122;5.250;2023-12-07T00:03:25;101955.0;;;1.0;100.0
62458;BME280;48509;52.122;5.250;2023-12-07T00:05:01;101953.0;;;0.96;100.0
62458;BME280;48509;52.122;5.250;2023-12-07T00:06:37;101949.0;;;0.97;100.0
62458;BME280;48509;52.122;5.250;2023-12-07T00:09:49;101951.0;;;0.95;100.0
62458;BME280;48509;52.122;5.250;2023-12-07T00:11:25;101953.0;;;0.95;100.0
62458;BME280;48509;52.122;5.250;2023-12-07T00:13:01;101951.0;;;0.97;100.0
62458;BME280;48509;52.122;5.250;2023-12-07T00:16:13;101951.0;;;0.99;100.0
62458;BME280;48509;52.122;5.250;2023-12-07T00:17:50;101949.0;;;1.01;100.0
62458;BME280;48509;52.122;5.250;2023-12-07T00:19:26;101952.0;;;0.96;100.0
62458;BME280;48509;52.122;5.250;2023-12-07T00:21:02;101949.0;;;0.95;100.0
62458;BME280;48509;52.122;5.250;2023-12-07T00:24:14;101947.0;;;0.98;100.0
62458;BME280;48509;52.122;5.250;2023-12-07T00:25:50;101950.0;;;0.99;100.0
62458;BME280;48509;52.122;5.250;2023-12-07T00:27:26;101940.0;;;0.96;100.0
62458;BME280;48509;52.122;5.250;2023-12-07T00:30:38;101933.0;;;1.04;100.0
62458;BME280;48509;52.122;5.250;2023-12-07T00:32:14;101939.0;;;1.02;100.0
62458;BME280;48509;52.122;5.250;2023-12-07T00:33:50;101932.0;;;1.04;100.0
62458;BME280;48509;52.122;5.250;2023-12-07T00:37:03;101928.0;;;0.96;100.0
62458;BME280;48509;52.122;5.250;2023-12-07T00:38:39;101930.0;;;0.87;100.0
62458;BME280;48509;52.122;5.250;2023-12-07T00:40:15;101930.0;;;0.89;100.0
62458;BME280;48509;52.122;5.250;2023-12-07T00:41:51;101925.0;;;1.03;100.0
62458;BME280;48509;52.122;5.250;2023-12-07T00:45:04;101930.0;;;1.37;100.0
62458;BME280;48509;52.122;5.250;2023-12-07T00:46:40;101927.0;;;1.38;100.0
62458;BME280;48509;52.122;5.250;2023-12-07T00:48:16;101927.0;;;1.18;100.0
62458;BME280;48509;52.122;5.250;2023-12-07T00:51:29;101925.0;;;1.16;100.0
62458;BME280;48509;52.122;5.250;2023-12-07T00:53:05;101936.0;;;1.29;100.0
62458;BME280;48509;52.122;5.250;2023-12-07T00:54:41;101938.0;;;1.04;100.0
62458;BME280;48509;52.122;5.250;2023-12-07T00:57:53;101935.0;;;0.96;100.0
62458;BME280;48509;52.122;5.250;2023-12-07T00:59:29;101933.0;;;1.01;100.0
62458;BME280;48509;52.122;5.250;2023-12-07T01:01:05;101933.0;;;1.05;100.0
62458;BME280;48509;52.122;5.250;2023-12-07T01:04:17;101934.0;;;1.03;100.0
62458;BME280;48509;52.122;5.250;2023-12-07T01:05:53;101941.0;;;0.82;100.0
62458;BME280;48509;52.122;5.250;2023-12-07T01:07:30;101944.0;;;0.85;100.0
62458;BME280;48509;52.122;5.250;2023-12-07T01:09:06;101947.0;;;0.82;100.0
62458;BME280;48509;52.122;5.250;2023-12-07T01:12:18;101948.0;;;0.74;100.0
62458;BME280;48509;52.122;5.250;2023-12-07T01:13:54;101944.0;;;0.75;100.0
62458;BME280;48509;52.122;5.250;2023-12-07T01:15:30;101939.0;;;0.73;100.0
62458;BME280;48509;52.122;5.250;2023-12-07T01:18:42;101946.0;;;0.7;100.0
62458;BME280;48509;52.122;5.250;2023-12-07T01:20:18;101945.0;;;0.65;100.0
62458;BME280;48509;52.122;5.250;2023-12-07T01:21:55;101944.0;;;0.58;100.0
62458;BME280;48509;52.122;5.250;2023-12-07T01:25:08;101941.0;;;0.6;100.0
62458;BME280;48509;52.122;5.250;2023-12-07T01:26:44;101941.0;;;0.61;100.0
62458;BME280;48509;52.122;5.250;2023-12-07T01:28:20;101941.0;;;0.54;100.0
62458;BME280;48509;52.122;5.250;2023-12-07T01:31:32;101951.0;;;0.5;100.0
62458;BME280;48509;52.122;5.250;2023-12-07T01:33:08;101947.0;;;0.62;100.0
62458;BME280;48509;52.122;5.250;2023-12-07T01:34:44;101950.0;;;0.48;100.0
62458;BME280;48509;52.122;5.250;2023-12-07T01:36:21;101951.0;;;0.41;100.0
62458;BME280;48509;52.122;5.250;2023-12-07T01:39:33;101955.0;;;0.49;100.0
62458;BME280;48509;52.122;5.250;2023-12-07T01:41:09;101952.0;;;0.54;100.0
62458;BME280;48509;52.122;5.250;2023-12-07T01:42:50;101953.0;;;0.51;100.0
62458;BME280;48509;52.122;5.250;2023-12-07T01:46:03;101951.0;;;0.49;100.0
62458;BME280;48509;52.122;5.250;2023-12-07T01:47:39;101955.0;;;0.5;100.0
62458;BME280;48509;52.122;5.250;2023-12-07T01:49:15;101955.0;;;0.44;100.0
62458;BME280;48509;52.122;5.250;2023-12-07T01:52:29;101953.0;;;0.7;100.0
62458;BME280;48509;52.122;5.250;2023-12-07T01:54:05;101956.0;;;0.51;100.0
62458;BME280;48509;52.122;5.250;2023-12-07T01:55:41;101956.0;;;0.63;100.0
62458;BME280;48509;52.122;5.250;2023-12-07T01:57:18;101958.0;;;0.64;100.0
62458;BME280;48509;52.122;5.250;2023-12-07T02:00:31;101956.0;;;0.64;100.0
62458;BME280;48509;52.122;5.250;2023-12-07T02:02:09;101958.0;;;0.58;100.0
62458;BME280;48509;52.122;5.250;2023-12-07T02:03:45;101960.0;;;0.54;100.0
62458;BME280;48509;52.122;5.250;2023-12-07T02:06:59;101955.0;;;0.54;100.0
62458;BME280;48509;52.122;5.250;2023-12-07T02:08:36;101950.0;;;0.58;100.0
62458;BME280;48509;52.122;5.250;2023-12-07T02:10:13;101952.0;;;0.61;100.0
62458;BME280;48509;52.122;5.250;2023-12-07T02:11:49;101951.0;;;0.67;100.0
62458;BME280;48509;52.122;5.250;2023-12-07T02:25:24;101958.0;;;0.5;100.0
62458;BME280;48509;52.122;5.250;2023-12-07T02:27:04;101961.0;;;0.49;100.0
62458;BME280;48509;52.122;5.250;2023-12-07T02:28:40;101959.0;;;0.53;100.0
62458;BME280;48509;52.122;5.250;2023-12-07T02:31:53;101960.0;;;0.53;100.0
62458;BME280;48509;52.122;5.250;2023-12-07T02:33:29;101952.0;;;0.56;100.0
62458;BME280;48509;52.122;5.250;2023-12-07T02:35:06;101956.0;;;0.51;100.0
62458;BME280;48509;52.122;5.250;2023-12-07T02:38:22;101951.0;;;0.52;100.0
62458;BME280;48509;52.122;5.250;2023-12-07T02:40:02;101951.0;;;0.58;100.0
62458;BME280;48509;52.122;5.250;2023-12-07T02:41:39;101947.0;;;0.58;100.0
62458;BME280;48509;52.122;5.250;2023-12-07T02:43:15;101949.0;;;0.54;100.0
62458;BME280;48509;52.122;5.250;2023-12-07T02:46:29;101942.0;;;0.49;100.0
62458;BME280;48509;52.122;5.250;2023-12-07T02:48:05;101941.0;;;0.51;100.0
62458;BME280;48509;52.122;5.250;2023-12-07T02:49:41;101945.0;;;0.49;100.0
62458;BME280;48509;52.122;5.250;2023-12-07T02:52:53;101940.0;;;0.49;100.0
62458;BME280;48509;52.122;5.250;2023-12-07T02:54:29;101939.0;;;0.6;100.0
62458;BME280;48509;52.122;5.250;2023-12-07T02:56:06;101945.0;;;0.5;100.0
62458;BME280;48509;52.122;5.250;2023-12-07T02:59:18;101943.0;;;0.6;100.0
62458;BME280;48509;52.122;5.250;2023-12-07T03:00:54;101940.0;;;0.66;100.0
62458;BME280;48509;52.122;5.250;2023-12-07T03:02:30;101946.0;;;0.6;100.0
62458;BME280;48509;52.122;5.250;2023-12-07T03:04:07;101942.0;;;0.53;100.0
62458;BME280;48509;52.122;5.250;2023-12-07T03:07:19;101950.0;;;0.47;100.0
62458;BME280;48509;52.122;5.250;2023-12-07T03:08:55;101945.0;;;0.57;100.0
62458;BME280;48509;52.122;5.250;2023-12-07T03:10:31;101945.0;;;0.58;100.0
62458;BME280;48509;52.122;5.250;2023-12-07T03:13:43;101949.0;;;0.44;100.0
62458;BME280;48509;52.122;5.250;2023-12-07T03:15:19;101947.0;;;0.51;100.0
62458;BME280;48509;52.122;5.250;2023-12-07T03:16:55;101945.0;;;0.58;100.0
62458;BME280;48509;52.122;5.250;2023-12-07T03:20:08;101948.0;;;0.46;100.0
62458;BME280;48509;52.122;5.250;2023-12-07T03:21:44;101956.0;;;0.56;100.0
62458;BME280;48509;52.122;5.250;2023-12-07T03:23:20;101956.0;;;0.54;100.0
62458;BME280;48509;52.122;5.250;2023-12-07T03:26:32;101960.0;;;0.64;100.0
62458;BME280;48509;52.122;5.250;2023-12-07T03:28:08;101960.0;;;0.63;100.0
62458;BME280;48509;52.122;5.250;2023-12-07T03:29:44;101961.0;;;0.51;100.0
62458;BME280;48509;52.122;5.250;2023-12-07T03:31:20;101964.0;;;0.46;100.0
62458;BME280;48509;52.122;5.250;2023-12-07T03:34:32;101959.0;;;0.6;100.0
62458;BME280;48509;52.122;5.250;2023-12-07T03:36:10;101959.0;;;0.64;100.0
62458;BME280;48509;52.122;5.250;2023-12-07T03:37:47;101964.0;;;0.67;100.0
62458;BME280;48509;52.122;5.250;2023-12-07T03:40:59;101969.0;;;0.58;100.0
62458;BME280;48509;52.122;5.250;2023-12-07T03:42:35;101966.0;;;0.54;100.0
62458;BME280;48509;52.122;5.250;2023-12-07T03:44:11;101968.0;;;0.67;100.0
62458;BME280;48509;52.122;5.250;2023-12-07T03:47:23;101968.0;;;0.66;100.0
62458;BME280;48509;52.122;5.250;2023-12-07T03:48:59;101969.0;;;0.59;100.0
62458;BME280;48509;52.122;5.250;2023-12-07T03:50:35;101969.0;;;0.72;100.0
62458;BME280;48509;52.122;5.250;2023-12-07T03:53:48;101971.0;;;0.63;100.0
62458;BME280;48509;52.122;5.250;2023-12-07T03:55:24;101972.0;;;0.58;100.0
62458;BME280;48509;52.122;5.250;2023-12-07T03:57:00;101968.0;;;0.67;100.0
62458;BME280;48509;52.122;5.250;2023-12-07T03:58:36;101965.0;;;0.68;100.0
62458;BME280;48509;52.122;5.250;2023-12-07T04:01:49;101965.0;;;0.57;100.0
62458;BME280;48509;52.122;5.250;2023-12-07T04:03:25;101959.0;;;0.65;100.0
62458;BME280;48509;52.122;5.250;2023-12-07T04:05:01;101961.0;;;0.65;100.0
62458;BME280;48509;52.122;5.250;2023-12-07T04:08:13;101968.0;;;0.59;100.0
62458;BME280;48509;52.122;5.250;2023-12-07T04:09:48;101971.0;;;0.62;100.0
62458;BME280;48509;52.122;5.250;2023-12-07T04:11:25;101967.0;;;0.69;100.0
62458;BME280;48509;52.122;5.250;2023-12-07T04:14:37;101968.0;;;0.75;100.0
62458;BME280;48509;52.122;5.250;2023-12-07T04:16:13;101967.0;;;0.72;100.0
62458;BME280;48509;52.122;5.250;2023-12-07T04:17:49;101967.0;;;0.62;100.0
62458;BME280;48509;52.122;5.250;2023-12-07T04:19:26;101970.0;;;0.63;100.0
62458;BME280;48509;52.122;5.250;2023-12-07T04:22:39;101961.0;;;0.86;100.0
62458;BME280;48509;52.122;5.250;2023-12-07T04:24:15;101961.0;;;0.78;100.0
62458;BME280;48509;52.122;5.250;2023-12-07T04:25:51;101965.0;;;0.72;100.0
62458;BME280;48509;52.122;5.250;2023-12-07T04:29:03;101968.0;;;0.8;100.0
62458;BME280;48509;52.122;5.250;2023-12-07T04:30:40;101969.0;;;0.93;100.0
62458;BME280;48509;52.122;5.250;2023-12-07T04:32:16;101963.0;;;0.99;100.0
62458;BME280;48509;52.122;5.250;2023-12-07T04:35:28;101964.0;;;0.93;100.0
62458;BME280;48509;52.122;5.250;2023-12-07T04:37:04;101970.0;;;0.84;100.0
62458;BME280;48509;52.122;5.250;2023-12-07T04:38:40;101962.0;;;1.0;100.0
62458;BME280;48509;52.122;5.250;2023-12-07T04:41:52;101965.0;;;0.93;100.0
62458;BME280;48509;52.122;5.250;2023-12-07T04:43:28;101961.0;;;0.89;100.0
62458;BME280;48509;52.122;5.250;2023-12-07T04:45:05;101961.0;;;0.93;100.0
62458;BME280;48509;52.122;5.250;2023-12-07T04:46:42;101963.0;;;0.98;100.0
62458;BME280;48509;52.122;5.250;2023-12-07T04:49:55;101966.0;;;1.15;100.0
62458;BME280;48509;52.122;5.250;2023-12-07T04:51:31;101961.0;;;1.15;100.0
62458;BME280;48509;52.122;5.250;2023-12-07T04:53:07;101957.0;;;1.08;100.0
62458;BME280;48509;52.122;5.250;2023-12-07T04:56:19;101951.0;;;1.08;100.0
62458;BME280;48509;52.122;5.250;2023-12-07T04:57:55;101952.0;;;1.01;100.0
62458;BME280;48509;52.122;5.250;2023-12-07T04:59:31;101946.0;;;1.13;100.0
62458;BME280;48509;52.122;5.250;2023-12-07T05:02:43;101948.0;;;1.04;100.0
62458;BME280;48509;52.122;5.250;2023-12-07T05:04:20;101952.0;;;1.16;100.0
62458;BME280;48509;52.122;5.250;2023-12-07T05:05:56;101949.0;;;1.35;100.0
62458;BME280;48509;52.122;5.250;2023-12-07T05:07:32;101952.0;;;1.16;100.0
62458;BME280;48509;52.122;5.250;2023-12-07T05:10:44;101948.0;;;1.2;100.0
62458;BME280;48509;52.122;5.250;2023-12-07T05:12:20;101949.0;;;1.27;100.0
62458;BME280;48509;52.122;5.250;2023-12-07T05:13:56;101940.0;;;1.27;100.0
62458;BME280;48509;52.122;5.250;2023-12-07T05:17:08;101942.0;;;1.3;100.0
62458;BME280;48509;52.122;5.250;2023-12-07T05:18:44;101942.0;;;1.34;100.0
62458;BME280;48509;52.122;5.250;2023-12-07T05:20:20;101943.0;;;1.45;100.0
62458;BME280;48509;52.122;5.250;2023-12-07T05:23:33;101946.0;;;1.38;100.0
62458;BME280;48509;52.122;5.250;2023-12-07T05:25:09;101947.0;;;1.33;100.0
62458;BME280;48509;52.122;5.250;2023-12-07T05:26:45;101952.0;;;1.45;100.0
62458;BME280;48509;52.122;5.250;2023-12-07T05:29:58;101948.0;;;1.33;100.0
62458;BME280;48509;52.122;5.250;2023-12-07T05:31:34;101943.0;;;1.46;100.0
62458;BME280;48509;52.122;5.250;2023-12-07T05:33:11;101946.0;;;1.47;100.0
62458;BME280;48509;52.122;5.250;2023-12-07T05:34:47;101947.0;;;1.56;100.0
62458;BME280;48509;52.122;5.250;2023-12-07T05:38:00;101945.0;;;1.52;100.0
62458;BME280;48509;52.122;5.250;2023-12-07T05:39:36;101943.0;;;1.73;100.0
62458;BME280;48509;52.122;5.250;2023-12-07T05:41:12;101937.0;;;1.74;100.0
62458;BME280;48509;52.122;5.250;2023-12-07T05:44:25;101928.0;;;1.92;100.0
62458;BME280;48509;52.122;5.250;2023-12-07T05:46:01;101930.0;;;1.73;100.0
62458;BME280;48509;52.122;5.250;2023-12-07T05:47:37;101930.0;;;1.64;100.0
62458;BME280;48509;52.122;5.250;2023-12-07T05:50:49;101925.0;;;1.76;100.0
62458;BME280;48509;52.122;5.250;2023-12-07T05:52:25;101921.0;;;1.77;100.0
62458;BME280;48509;52.122;5.250;2023-12-07T05:54:02;101928.0;;;1.93;100.0
62458;BME280;48509;52.122;5.250;2023-12-07T05:57:15;101928.0;;;1.89;100.0
62458;BME280;48509;52.122;5.250;2023-12-07T05:58:51;101931.0;;;1.81;100.0
62458;BME280;48509;52.122;5.250;2023-12-07T06:00:27;101939.0;;;1.96;100.0
62458;BME280;48509;52.122;5.250;2023-12-07T06:02:03;101942.0;;;1.93;100.0
62458;BME280;48509;52.122;5.250;2023-12-07T06:05:16;101937.0;;;1.97;100.0
62458;BME280;48509;52.122;5.250;2023-12-07T06:06:52;101941.0;;;1.87;100.0
62458;BME280;48509;52.122;5.250;2023-12-07T06:08:28;101946.0;;;1.8;100.0
62458;BME280;48509;52.122;5.250;2023-12-07T06:11:40;101952.0;;;1.92;100.0
62458;BME280;48509;52.122;5.250;2023-12-07T06:13:17;101941.0;;;2.1;100.0
62458;BME280;48509;52.122;5.250;2023-12-07T06:14:53;101943.0;;;2.21;100.0
62458;BME280;48509;52.122;5.250;2023-12-07T06:18:05;101942.0;;;2.08;100.0
62458;BME280;48509;52.122;5.250;2023-12-07T06:19:41;101944.0;;;1.95;100.0
62458;BME280;48509;52.122;5.250;2023-12-07T06:21:17;101950.0;;;1.92;100.0
62458;BME280;48509;52.122;5.250;2023-12-07T06:22:53;101953.0;;;1.93;100.0
62458;BME280;48509;52.122;5.250;2023-12-07T06:26:05;101942.0;;;2.0;100.0
62458;BME280;48509;52.122;5.250;2023-12-07T06:27:41;101946.0;;;1.9;100.0
62458;BME280;48509;52.122;5.250;2023-12-07T06:29:17;101947.0;;;1.98;100.0
62458;BME280;48509;52.122;5.250;2023-12-07T06:32:30;101952.0;;;2.13;100.0
62458;BME280;48509;52.122;5.250;2023-12-07T06:34:06;101949.0;;;2.16;100.0
62458;BME280;48509;52.122;5.250;2023-12-07T06:35:42;101953.0;;;2.12;100.0
62458;BME280;48509;52.122;5.250;2023-12-07T06:38:54;101953.0;;;2.02;100.0
62458;BME280;48509;52.122;5.250;2023-12-07T06:40:30;101950.0;;;2.04;100.0
62458;BME280;48509;52.122;5.250;2023-12-07T06:42:06;101952.0;;;2.19;100.0
62458;BME280;48509;52.122;5.250;2023-12-07T06:45:18;101950.0;;;2.35;100.0
62458;BME280;48509;52.122;5.250;2023-12-07T06:46:54;101953.0;;;2.35;100.0
62458;BME280;48509;52.122;5.250;2023-12-07T06:48:31;101957.0;;;2.34;100.0
62458;BME280;48509;52.122;5.250;2023-12-07T06:50:07;101957.0;;;2.15;100.0
62458;BME280;48509;52.122;5.250;2023-12-07T06:53:20;101963.0;;;1.95;100.0
62458;BME280;48509;52.122;5.250;2023-12-07T06:54:56;101961.0;;;1.97;100.0
62458;BME280;48509;52.122;5.250;2023-12-07T06:56:32;101958.0;;;1.94;100.0
62458;BME280;48509;52.122;5.250;2023-12-07T06:59:44;101950.0;;;2.0;100.0
62458;BME280;48509;52.122;5.250;2023-12-07T07:01:20;101955.0;;;2.04;100.0
62458;BME280;48509;52.122;5.250;2023-12-07T07:02:56;101944.0;;;1.98;100.0
62458;BME280;48509;52.122;5.250;2023-12-07T07:06:09;101942.0;;;1.81;100.0
62458;BME280;48509;52.122;5.250;2023-12-07T07:07:45;101948.0;;;1.81;100.0
62458;BME280;48509;52.122;5.250;2023-12-07T07:09:21;101944.0;;;1.8;100.0
62458;BME280;48509;52.122;5.250;2023-12-07T07:10:57;101945.0;;;1.73;100.0
62458;BME280;48509;52.122;5.250;2023-12-07T07:14:09;101953.0;;;1.88;100.0
62458;BME280;48509;52.122;5.250;2023-12-07T07:15:45;101952.0;;;1.76;100.0
62458;BME280;48509;52.122;5.250;2023-12-07T07:17:21;101950.0;;;1.62;100.0
62458;BME280;48509;52.122;5.250;2023-12-07T07:20:34;101963.0;;;1.65;100.0
62458;BME280;48509;52.122;5.250;2023-12-07T07:22:09;101960.0;;;1.67;100.0
62458;BME280;48509;52.122;5.250;2023-12-07T07:23:46;101958.0;;;1.77;100.0
62458;BME280;48509;52.122;5.250;2023-12-07T07:26:58;101962.0;;;1.8;100.0
62458;BME280;48509;52.122;5.250;2023-12-07T07:28:34;101957.0;;;1.8;100.0
62458;BME280;48509;52.122;5.250;2023-12-07T07:30:11;101960.0;;;1.71;100.0
62458;BME280;48509;52.122;5.250;2023-12-07T07:33:23;101960.0;;;1.76;100.0
62458;BME280;48509;52.122;5.250;2023-12-07T07:35:01;101965.0;;;1.91;100.0
62458;BME280;48509;52.122;5.250;2023-12-07T07:36:37;101961.0;;;1.95;100.0
62458;BME280;48509;52.122;5.250;2023-12-07T07:41:26;101960.0;;;1.75;100.0
62458;BME280;48509;52.122;5.250;2023-12-07T07:43:02;101959.0;;;1.85;100.0
62458;BME280;48509;52.122;5.250;2023-12-07T07:44:38;101958.0;;;1.65;100.0
62458;BME280;48509;52.122;5.250;2023-12-07T07:47:50;101960.0;;;1.7;100.0
62458;BME280;48509;52.122;5.250;2023-12-07T07:49:26;101959.0;;;1.67;100.0
62458;BME280;48509;52.122;5.250;2023-12-07T07:51:03;101966.0;;;1.75;100.0
62458;BME280;48509;52.122;5.250;2023-12-07T07:54:14;101964.0;;;1.74;100.0
62458;BME280;48509;52.122;5.250;2023-12-07T07:55:50;101966.0;;;1.83;100.0
62458;BME280;48509;52.122;5.250;2023-12-07T07:57:26;101964.0;;;1.83;100.0
62458;BME280;48509;52.122;5.250;2023-12-07T08:00:38;101968.0;;;1.86;100.0
62458;BME280;48509;52.122;5.250;2023-12-07T08:02:14;101969.0;;;1.84;100.0
62458;BME280;48509;52.122;5.250;2023-12-07T08:03:49;101970.0;;;1.9;100.0
62458;BME280;48509;52.122;5.250;2023-12-07T08:05:25;101967.0;;;1.93;100.0
62458;BME280;48509;52.122;5.250;2023-12-07T08:08:37;101967.0;;;1.89;100.0
62458;BME280;48509;52.122;5.250;2023-12-07T08:10:13;101961.0;;;1.86;100.0
62458;BME280;48509;52.122;5.250;2023-12-07T08:11:50;101963.0;;;1.9;100.0
62458;BME280;48509;52.122;5.250;2023-12-07T08:15:02;101960.0;;;2.11;100.0
62458;BME280;48509;52.122;5.250;2023-12-07T08:16:42;101955.0;;;2.04;100.0
62458;BME280;48509;52.122;5.250;2023-12-07T08:18:18;101958.0;;;1.96;100.0
62458;BME280;48509;52.122;5.250;2023-12-07T08:21:30;101964.0;;;1.9;100.0
62458;BME280;48509;52.122;5.250;2023-12-07T08:23:06;101962.0;;;1.88;100.0
62458;BME280;48509;52.122;5.250;2023-12-07T08:24:42;101964.0;;;1.88;100.0
62458;BME280;48509;52.122;5.250;2023-12-07T08:26:18;101959.0;;;2.02;100.0
62458;BME280;48509;52.122;5.250;2023-12-07T08:29:31;101958.0;;;2.06;100.0
62458;BME280;48509;52.122;5.250;2023-12-07T08:31:06;101951.0;;;2.09;100.0
62458;BME280;48509;52.122;5.250;2023-12-07T08:32:42;101951.0;;;2.12;100.0
62458;BME280;48509;52.122;5.250;2023-12-07T08:35:54;101952.0;;;2.19;100.0
62458;BME280;48509;52.122;5.250;2023-12-07T08:37:30;101952.0;;;2.19;100.0
62458;BME280;48509;52.122;5.250;2023-12-07T08:39:06;101955.0;;;2.14;100.0
62458;BME280;48509;52.122;5.250;2023-12-07T08:42:18;101960.0;;;2.23;100.0
62458;BME280;48509;52.122;5.250;2023-12-07T08:43:54;101960.0;;;2.09;100.0
62458;BME280;48509;52.122;5.250;2023-12-07T08:45:31;101964.0;;;1.96;100.0
62458;BME280;48509;52.122;5.250;2023-12-07T08:48:43;101953.0;;;2.0;100.0
62458;BME280;48509;52.122;5.250;2023-12-07T08:50:19;101949.0;;;1.98;100.0
62458;BME280;48509;52.122;5.250;2023-12-07T08:51:56;101953.0;;;2.06;100.0
62458;BME280;48509;52.122;5.250;2023-12-07T08:53:32;101952.0;;;2.1;100.0
62458;BME280;48509;52.122;5.250;2023-12-07T08:56:44;101950.0;;;2.21;100.0
62458;BME280;48509;52.122;5.250;2023-12-07T08:58:20;101941.0;;;2.23;100.0
62458;BME280;48509;52.122;5.250;2023-12-07T08:59:56;101938.0;;;2.17;100.0
62458;BME280;48509;52.122;5.250;2023-12-07T09:03:09;101942.0;;;2.11;100.0
62458;BME280;48509;52.122;5.250;2023-12-07T09:04:45;101950.0;;;2.11;100.0
62458;BME280;48509;52.122;5.250;2023-12-07T09:06:21;101949.0;;;2.05;100.0
62458;BME280;48509;52.122;5.250;2023-12-07T09:09:33;101948.0;;;2.08;100.0
62458;BME280;48509;52.122;5.250;2023-12-07T09:11:09;101936.0;;;2.12;100.0
62458;BME280;48509;52.122;5.250;2023-12-07T09:12:45;101938.0;;;2.23;100.0
62458;BME280;48509;52.122;5.250;2023-12-07T09:15:57;101934.0;;;2.21;100.0
62458;BME280;48509;52.122;5.250;2023-12-07T09:17:33;101934.0;;;2.21;100.0
62458;BME280;48509;52.122;5.250;2023-12-07T09:19:10;101930.0;;;2.16;100.0
62458;BME280;48509;52.122;5.250;2023-12-07T09:20:46;101934.0;;;2.0;100.0
62458;BME280;48509;52.122;5.250;2023-12-07T09:23:58;101934.0;;;2.19;100.0
62458;BME280;48509;52.122;5.250;2023-12-07T09:25:34;101935.0;;;2.19;100.0
62458;BME280;48509;52.122;5.250;2023-12-07T09:27:10;101935.0;;;2.11;100.0
62458;BME280;48509;52.122;5.250;2023-12-07T09:30:22;101936.0;;;2.15;100.0
62458;BME280;48509;52.122;5.250;2023-12-07T09:31:58;101934.0;;;2.23;100.0
62458;BME280;48509;52.122;5.250;2023-12-07T09:33:34;101941.0;;;2.06;100.0
62458;BME280;48509;52.122;5.250;2023-12-07T09:36:48;101945.0;;;2.14;100.0
62458;BME280;48509;52.122;5.250;2023-12-07T09:38:24;101949.0;;;2.04;100.0
62458;BME280;48509;52.122;5.250;2023-12-07T09:40:00;101957.0;;;2.1;100.0
62458;BME280;48509;52.122;5.250;2023-12-07T09:41:36;101951.0;;;2.23;100.0
62458;BME280;48509;52.122;5.250;2023-12-07T09:44:49;101950.0;;;2.44;100.0
62458;BME280;48509;52.122;5.250;2023-12-07T09:46:25;101947.0;;;2.42;100.0
62458;BME280;48509;52.122;5.250;2023-12-07T09:48:03;101940.0;;;2.34;100.0
62458;BME280;48509;52.122;5.250;2023-12-07T09:51:17;101935.0;;;2.37;100.0
62458;BME280;48509;52.122;5.250;2023-12-07T09:52:56;101933.0;;;2.27;100.0
62458;BME280;48509;52.122;5.250;2023-12-07T09:54:32;101933.0;;;2.25;100.0
62458;BME280;48509;52.122;5.250;2023-12-07T09:57:45;101930.0;;;2.23;100.0
62458;BME280;48509;52.122;5.250;2023-12-07T09:59:22;101932.0;;;2.17;100.0
62458;BME280;48509;52.122;5.250;2023-12-07T10:00:58;101921.0;;;2.29;100.0
62458;BME280;48509;52.122;5.250;2023-12-07T10:02:36;101914.0;;;2.35;100.0
62458;BME280;48509;52.122;5.250;2023-12-07T10:05:54;101911.0;;;2.36;100.0
62458;BME280;48509;52.122;5.250;2023-12-07T10:07:32;101920.0;;;2.34;100.0
62458;BME280;48509;52.122;5.250;2023-12-07T10:09:10;101914.0;;;2.37;100.0
62458;BME280;48509;52.122;5.250;2023-12-07T10:14:22;101899.0;;;2.31;100.0
62458;BME280;48509;52.122;5.250;2023-12-07T10:16:08;101901.0;;;2.32;100.0
62458;BME280;48509;52.122;5.250;2023-12-07T10:17:47;101896.0;;;2.36;100.0
62458;BME280;48509;52.122;5.250;2023-12-07T10:19:24;101894.0;;;2.31;100.0
62458;BME280;48509;52.122;5.250;2023-12-07T10:22:38;101887.0;;;2.35;100.0
62458;BME280;48509;52.122;5.250;2023-12-07T10:24:15;101884.0;;;2.32;100.0
62458;BME280;48509;52.122;5.250;2023-12-07T10:25:52;101886.0;;;2.48;100.0
62458;BME280;48509;52.122;5.250;2023-12-07T10:29:05;101887.0;;;2.44;100.0
62458;BME280;48509;52.122;5.250;2023-12-07T10:30:42;101884.0;;;2.25;100.0
62458;BME280;48509;52.122;5.250;2023-12-07T10:32:18;101875.0;;;2.33;100.0
62458;BME280;48509;52.122;5.250;2023-12-07T10:33:54;101876.0;;;2.32;100.0
62458;BME280;48509;52.122;5.250;2023-12-07T10:37:06;101874.0;;;2.37;100.0
62458;BME280;48509;52.122;5.250;2023-12-07T10:38:42;101871.0;;;2.32;100.0
62458;BME280;48509;52.122;5.250;2023-12-07T10:40:18;101870.0;;;2.37;100.0
62458;BME280;48509;52.122;5.250;2023-12-07T10:43:42;101865.0;;;2.4;100.0
62458;BME280;48509;52.122;5.250;2023-12-07T10:45:20;101869.0;;;2.36;100.0
62458;BME280;48509;52.122;5.250;2023-12-07T10:46:57;101864.0;;;2.46;100.0
62458;BME280;48509;52.122;5.250;2023-12-07T10:48:34;101859.0;;;2.44;100.0
62458;BME280;48509;52.122;5.250;2023-12-07T10:51:58;101860.0;;;2.52;100.0
62458;BME280;48509;52.122;5.250;2023-12-07T10:53:38;101864.0;;;2.6;100.0
62458;BME280;48509;52.122;5.250;2023-12-07T10:55:20;101862.0;;;2.62;100.0
62458;BME280;48509;52.122;5.250;2023-12-07T10:56:56;101857.0;;;2.52;100.0
62458;BME280;48509;52.122;5.250;2023-12-07T11:00:12;101853.0;;;2.65;100.0
62458;BME280;48509;52.122;5.250;2023-12-07T11:01:48;101851.0;;;2.65;100.0
62458;BME280;48509;52.122;5.250;2023-12-07T11:03:25;101846.0;;;2.67;100.0
62458;BME280;48509;52.122;5.250;2023-12-07T11:06:44;101839.0;;;2.52;100.0
62458;BME280;48509;52.122;5.250;2023-12-07T11:08:28;101836.0;;;2.59;100.0
62458;BME280;48509;52.122;5.250;2023-12-07T11:10:12;101828.0;;;2.52;100.0
62458;BME280;48509;52.122;5.250;2023-12-07T11:12:01;101833.0;;;2.72;100.0
62458;BME280;48509;52.122;5.250;2023-12-07T11:13:45;101825.0;;;2.69;100.0
62458;BME280;48509;52.122;5.250;2023-12-07T11:17:03;101822.0;;;2.44;100.0
62458;BME280;48509;52.122;5.250;2023-12-07T11:18:39;101821.0;;;2.5;100.0
62458;BME280;48509;52.122;5.250;2023-12-07T11:20:19;101808.0;;;2.54;100.0
62458;BME280;48509;52.122;5.250;2023-12-07T11:23:31;101816.0;;;2.5;100.0
62458;BME280;48509;52.122;5.250;2023-12-07T11:25:08;101815.0;;;2.63;100.0
62458;BME280;48509;52.122;5.250;2023-12-07T11:26:44;101813.0;;;2.66;100.0
62458;BME280;48509;52.122;5.250;2023-12-07T11:28:34;101807.0;;;2.79;100.0